Terminal Aerodrome Forecast
Issued by NWS

Home | Current Version | Previous Version | Text Only | Print | Product List | Glossary On
Versions: 1 2 3 4 5 6 7 8 9 10 11 12 13 14 15 16 17 18 19 20 21 22
000
FTUS42 KILM 220538
TAFCRE
TAF
KCRE 220538Z 2206/2306 VRB03KT P6SM VCSH BKN020
      TEMPO 2206/2210 4SM BR SCT020
     FM221000 00000KT P6SM SCT020
     FM221500 19005KT P6SM VCTS BKN020CB
     FM222100 19010KT P6SM FEW020
     FM230000 20009KT P6SM BKN090
     FM230300 22008KT P6SM SCT080=

USA.gov is the U.S. government's official web portal to all federal, state and local government web resources and services.